Flight Track Log - Related Links

Times and Time Zones

All times are in EDT time to prevent confusion due to time zone crossing. See the ASA601 flight status page for this flight to view local times or setup timezone preferences in your user account.

Time Position Orientation Groundspeed Altitude Reporting Facility
EDT Latitude Longitude Course Direction KTS MPH feet Rate Location/Type
Mon 01:03:11 AM 36.0753 -115.1739 272° West 185 213 3,200  Level Los Angeles Center
Mon 01:03:41 AM 36.0761 -115.2081 272° West 184 212 4,300 1,846 Climbing Los Angeles Center
Mon 01:04:42 AM 36.0439 -115.2692 237° Southwest 237 273 6,000 1,419 Climbing Los Angeles Center
Mon 01:05:14 AM 36.0136 -115.2803 197° South 245 282 6,500 2,065 Climbing Los Angeles Center
Mon 01:06:15 AM 35.9478 -115.3283 211° Southwest 269 310 9,200 2,115 Climbing Los Angeles Center
Mon 01:07:16 AM 35.8908 -115.4064 228° Southwest 291 335 10,800 1,659 Climbing Los Angeles Center
Mon 01:08:18 AM 35.8883 -115.5336 269° West 345 397 12,600 2,195 Climbing Los Angeles Center
Mon 01:09:19 AM 35.8914 -115.6872 271° West 393 452 15,300 2,341 Climbing Los Angeles Center
Mon 01:10:21 AM 35.8933 -115.8261 271° West 405 466 17,400 1,902 Climbing Los Angeles Center
Mon 01:11:22 AM 35.8992 -115.9519 273° West 430 495 19,200 1,918 Climbing Los Angeles Center
Mon 01:12:23 AM 35.9792 -116.0667 311° West 444 511 21,300 2,049 Climbing Los Angeles Center
Mon 01:13:25 AM 36.1031 -116.1858 322° Northwest 462 532 23,400 1,805 Climbing Los Angeles Center
Mon 01:14:26 AM 36.1886 -116.2997 313° West 466 536 25,000 1,377 Climbing Los Angeles Center
Mon 01:15:27 AM 36.2750 -116.4233 311° West 475 547 26,200 1,122 Climbing Los Angeles Center
Mon 01:16:29 AM 36.3653 -116.5481 312° West 483 556 27,300 1,317 Climbing Los Angeles Center
Mon 01:17:30 AM 36.4567 -116.6739 312° West 491 565 28,900 1,623 Climbing Los Angeles Center
Mon 01:18:31 AM 36.5633 -116.8200 312° West 491 565 30,600 1,475 Climbing Los Angeles Center
Mon 01:19:32 AM 36.6753 -116.9269 323° Northwest 495 570 31,900 1,268 Climbing Los Angeles Center
Mon 01:20:34 AM 36.7894 -117.0239 326° Northwest 497 572 33,200 1,317 Climbing Los Angeles Center
Mon 01:21:35 AM 36.8997 -117.1200 325° Northwest 496 571 34,600 1,419 Climbing Los Angeles Center
Mon 01:22:07 AM 36.9692 -117.1747 328° Northwest 495 570 35,400 903 Climbing Oakland Center
Mon 01:23:08 AM 37.0969 -117.2408 338° Northwest 499 574 36,000 295 Climbing Oakland Center
Mon 01:24:09 AM 37.2219 -117.3081 337° Northwest 492 566 36,000  Level Oakland Center
Mon 01:24:39 AM 37.2711 -117.3331 338° Northwest 485 558 36,000  Level Los Angeles Center
Mon 01:25:40 AM 37.3958 -117.4006 337° Northwest 486 559 36,000  Level Los Angeles Center
Mon 01:26:11 AM 37.4717 -117.4436 336° Northwest 490 564 36,000  Level Oakland Center
Mon 01:27:11 AM 37.5969 -117.5100 337° Northwest 487 560 36,000  Level Oakland Center
Mon 01:28:12 AM 37.7231 -117.5792 337° Northwest 489 563 36,000  Level Oakland Center
Mon 01:29:13 AM 37.8478 -117.6458 337° Northwest 483 556 36,000  Level Oakland Center
Mon 01:30:14 AM 37.9728 -117.7164 336° Northwest 485 558 36,000  Level Oakland Center
Mon 01:31:15 AM 38.0997 -117.7856 337° Northwest 488 562 36,000  Level Oakland Center
Mon 01:32:15 AM 38.2258 -117.8547 337° Northwest 489 563 36,000 347 Level Oakland Center
Mon 01:33:16 AM 38.3508 -117.9231 337° Northwest 484 557 36,700 934 Climbing Oakland Center
Mon 01:34:17 AM 38.4736 -117.9906 337° Northwest 478 550 37,900 639 Climbing Oakland Center
Mon 01:35:18 AM 38.5950 -118.0592 336° Northwest 475 547 38,000 50 Climbing Oakland Center
Mon 01:36:18 AM 38.7111 -118.1214 337° Northwest 480 552 38,000  Level Oakland Center
Mon 01:37:19 AM 38.8575 -118.2053 336° Northwest 481 554 38,000  Level Oakland Center
Mon 01:38:20 AM 38.9797 -118.2756 336° Northwest 482 555 38,000  Level Oakland Center
Mon 01:39:20 AM 39.1011 -118.3436 336° Northwest 479 551 38,000  Level Oakland Center
Mon 01:40:21 AM 39.2211 -118.4131 336° Northwest 476 548 38,000  Level Oakland Center
Mon 01:41:22 AM 39.3281 -118.4731 337° Northwest 473 544 38,000  Level Oakland Center
Mon 01:42:22 AM 39.4503 -118.5433 336° Northwest 478 550 38,000  Level Oakland Center
Mon 01:43:23 AM 39.5797 -118.6175 336° Northwest 480 552 38,000  Level Oakland Center
Mon 01:44:24 AM 39.6981 -118.6878 335° Northwest 476 548 38,000  Level Oakland Center
Mon 01:45:24 AM 39.8181 -118.7586 336° Northwest 475 547 38,000  Level Oakland Center
Mon 01:46:25 AM 39.9386 -118.8281 336° Northwest 475 547 38,000  Level Oakland Center
Mon 01:47:26 AM 40.0622 -118.9011 336° Northwest 486 559 38,000  Level Oakland Center
Mon 01:48:26 AM 40.2081 -118.9869 336° Northwest 482 555 38,000  Level Oakland Center
Mon 01:49:27 AM 40.3297 -119.0600 335° Northwest 481 554 38,000  Level Oakland Center
Mon 01:50:52 AM 40.5011 -119.1611 336° Northwest 484 557 38,000  Level Oakland Center
Mon 01:51:52 AM 40.6233 -119.2358 335° Northwest 485 558 38,000  Level Oakland Center
Mon 01:52:53 AM 40.7458 -119.3097 335° Northwest 485 558 38,000  Level Oakland Center
Mon 01:53:53 AM 40.8636 -119.3794 336° Northwest 483 556 38,000  Level Oakland Center
Mon 01:54:54 AM 40.9808 -119.4472 336° Northwest 481 554 38,000  Level Oakland Center
Mon 01:55:55 AM 41.0992 -119.5231 334° Northwest 475 547 38,000  Level Oakland Center
Mon 01:56:38 AM 41.1975 -119.5825 336° Northwest 477 549 38,000  Level Seattle Center
Mon 01:57:38 AM 41.3175 -119.6547 336° Northwest 476 548 38,000  Level Seattle Center
Mon 01:58:39 AM 41.4397 -119.7272 336° Northwest 481 554 38,000  Level Seattle Center
Mon 01:59:40 AM 41.5594 -119.8019 335° Northwest 477 549 38,000  Level Seattle Center
Mon 02:00:41 AM 41.6806 -119.8769 335° Northwest 480 552 38,000  Level Seattle Center
Mon 02:01:41 AM 41.7994 -119.9517 335° Northwest 475 547 38,000  Level Seattle Center
Mon 02:02:42 AM 41.9203 -120.0261 335° Northwest 478 550 38,000  Level Seattle Center
Mon 02:03:42 AM 42.0408 -120.1025 335° Northwest 480 552 38,000  Level Seattle Center
Mon 02:04:43 AM 42.1597 -120.1789 335° Northwest 477 549 38,000  Level Seattle Center
Mon 02:05:43 AM 42.2811 -120.2542 335° Northwest 479 551 38,000  Level Seattle Center
Mon 02:06:43 AM 42.4006 -120.3303 335° Northwest 479 551 38,000  Level Seattle Center
Mon 02:07:44 AM 42.5183 -120.4056 335° Northwest 471 542 38,000  Level Seattle Center
Mon 02:08:44 AM 42.6375 -120.4797 335° Northwest 472 543 38,000  Level Seattle Center
Mon 02:09:45 AM 42.7567 -120.5583 334° Northwest 475 547 38,000  Level Seattle Center
Mon 02:10:45 AM 42.9003 -120.6514 335° Northwest 478 550 38,000  Level Seattle Center
Mon 02:11:46 AM 43.0158 -120.7267 335° Northwest 470 541 38,000  Level Seattle Center
Mon 02:12:46 AM 43.1336 -120.8008 335° Northwest 466 536 38,000  Level Seattle Center
Mon 02:13:47 AM 43.2497 -120.8789 334° Northwest 466 536 38,000  Level Seattle Center
Mon 02:14:47 AM 43.3667 -120.9544 335° Northwest 466 536 38,000  Level Seattle Center
Mon 02:15:48 AM 43.4831 -121.0294 335° Northwest 465 535 38,000  Level Seattle Center
Mon 02:16:48 AM 43.5886 -121.0989 335° Northwest 464 534 38,000  Level Seattle Center
Mon 02:17:49 AM 43.7147 -121.1842 334° Northwest 463 533 38,000  Level Seattle Center
Mon 02:18:49 AM 43.8361 -121.2653 334° Northwest 465 535 38,000  Level Seattle Center
Mon 02:19:50 AM 43.9383 -121.3325 335° Northwest 465 535 38,000  Level Seattle Center
Mon 02:20:50 AM 44.0558 -121.4131 334° Northwest 470 541 38,000  Level Seattle Center
Mon 02:21:51 AM 44.1736 -121.4928 334° Northwest 469 540 38,000  Level Seattle Center
Mon 02:22:51 AM 44.2922 -121.5733 334° Northwest 474 545 38,000  Level Seattle Center
Mon 02:23:52 AM 44.4097 -121.6519 334° Northwest 469 540 38,000  Level Seattle Center
Mon 02:24:52 AM 44.5278 -121.7322 334° Northwest 471 542 38,000  Level Seattle Center
Mon 02:25:52 AM 44.6447 -121.8136 334° Northwest 469 540 38,000  Level Seattle Center
Mon 02:26:53 AM 44.7850 -121.9106 334° Northwest 468 539 38,000  Level Seattle Center
Mon 02:27:53 AM 44.8858 -121.9803 334° Northwest 463 533 38,000  Level Seattle Center
Mon 02:28:54 AM 45.0031 -122.0656 333° Northwest 470 541 38,000  Level Seattle Center
Mon 02:29:54 AM 45.1192 -122.1458 334° Northwest 469 540 38,000  Level Seattle Center
Mon 02:30:55 AM 45.2361 -122.2258 334° Northwest 469 540 38,000  Level Seattle Center
Mon 02:31:55 AM 45.3494 -122.3069 333° Northwest 464 534 38,000 -99 Level Seattle Center
Mon 02:32:56 AM 45.4639 -122.3872 334° Northwest 461 531 37,800 -1,041 Descending Seattle Center
Mon 02:33:56 AM 45.5767 -122.4678 333° Northwest 459 528 35,900 -2,281 Descending Seattle Center
Mon 02:34:57 AM 45.6892 -122.5481 334° Northwest 455 524 33,200 -2,926 Descending Seattle Center
Mon 02:35:57 AM 45.8336 -122.6100 343° North 455 524 30,000 -2,600 Descending Seattle Center
Mon 02:36:57 AM 45.9542 -122.6414 350° North 446 513 28,000 -2,033 Descending Seattle Center
Mon 02:37:58 AM 46.0728 -122.6403 360° North 439 505 25,900 -2,083 Descending Seattle Center
Mon 02:38:58 AM 46.1858 -122.6275 North 418 481 23,800 -2,350 Descending Seattle Center
Mon 02:39:58 AM 46.3022 -122.6236 North 405 466 21,200 -2,479 Descending Seattle Center
Mon 02:40:59 AM 46.4083 -122.6142 North 393 452 18,800 -2,182 Descending Seattle Center
Mon 02:41:59 AM 46.5114 -122.6056 North 378 435 16,800 -2,000 Descending Seattle Center
Mon 02:42:59 AM 46.6106 -122.5989 North 359 413 14,800 -1,934 Descending Seattle Center
Mon 02:44:00 AM 46.7081 -122.5897 North 352 405 12,900 -1,934 Descending Seattle Center
Mon 02:45:00 AM 46.8078 -122.5531 14° North 339 390 10,900 -1,500 Descending Seattle Center
Mon 02:46:00 AM 46.8900 -122.4994 24° Northeast 321 369 9,900 -1,091 Descending Seattle Center
Mon 02:47:01 AM 46.9669 -122.4583 20° North 297 342 8,700 -1,240 Descending Seattle Center
Mon 02:48:01 AM 47.0400 -122.4203 20° North 282 325 7,400 -1,400 Descending Seattle Center
Mon 02:49:01 AM 47.1108 -122.3831 20° North 273 314 5,900 -1,388 Descending Seattle Center
Mon 02:50:02 AM 47.1831 -122.3525 16° North 270 311 4,600 -942 Descending Seattle Center
Mon 02:51:02 AM 47.2500 -122.3267 15° North 251 289 4,000 -700 Descending Seattle Center
Mon 02:52:02 AM 47.3081 -122.3211 North 212 244 3,200 -992 Descending Seattle Center
Mon 02:53:03 AM 47.3575 -122.3186 North 182 209 2,000 -942 Descending Seattle Center
Mon 02:54:03 AM 47.3975 -122.3189 360° North 148 170 1,300 -750 Descending Seattle Center
Mon 02:55:03 AM 47.4369 -122.3186 360° North 143 165 500 -446 Descending Seattle Center
Mon 02:56:04 AM 47.4767 -122.3186 360° North 143 165 400 -98 Descending Seattle Center

Login

Don't have an account? Register now (free) for customized features, flight alerts, and more!